sensor_id;sensor_type;location;lat;lon;timestamp;temperature;humidity
51884;DHT22;37915;53.254;6.598;2023-02-26T00:01:51;1.30;99.90
51884;DHT22;37915;53.254;6.598;2023-02-26T00:04:17;1.70;99.90
51884;DHT22;37915;53.254;6.598;2023-02-26T00:06:42;1.40;99.90
51884;DHT22;37915;53.254;6.598;2023-02-26T00:09:17;1.50;99.90
51884;DHT22;37915;53.254;6.598;2023-02-26T00:11:43;1.40;99.90
51884;DHT22;37915;53.254;6.598;2023-02-26T00:14:10;1.40;99.90
51884;DHT22;37915;53.254;6.598;2023-02-26T00:16:37;1.90;99.90
51884;DHT22;37915;53.254;6.598;2023-02-26T00:19:04;1.40;99.90
51884;DHT22;37915;53.254;6.598;2023-02-26T00:21:31;1.40;99.90
51884;DHT22;37915;53.254;6.598;2023-02-26T00:23:56;1.40;99.90
51884;DHT22;37915;53.254;6.598;2023-02-26T00:26:23;1.30;99.90
51884;DHT22;37915;53.254;6.598;2023-02-26T00:28:49;1.30;99.90
51884;DHT22;37915;53.254;6.598;2023-02-26T00:31:15;1.30;99.90
51884;DHT22;37915;53.254;6.598;2023-02-26T00:33:41;1.20;99.90
51884;DHT22;37915;53.254;6.598;2023-02-26T00:36:21;1.20;99.90
51884;DHT22;37915;53.254;6.598;2023-02-26T00:38:56;1.20;99.90
51884;DHT22;37915;53.254;6.598;2023-02-26T00:41:24;1.30;99.90
51884;DHT22;37915;53.254;6.598;2023-02-26T00:43:50;1.30;99.90
51884;DHT22;37915;53.254;6.598;2023-02-26T00:56:32;1.10;99.90
51884;DHT22;37915;53.254;6.598;2023-02-26T00:58:57;1.00;99.90
51884;DHT22;37915;53.254;6.598;2023-02-26T01:01:23;0.90;99.90
51884;DHT22;37915;53.254;6.598;2023-02-26T01:03:48;1.60;99.90
51884;DHT22;37915;53.254;6.598;2023-02-26T01:06:14;0.70;99.90
51884;DHT22;37915;53.254;6.598;2023-02-26T01:08:53;0.70;99.90
51884;DHT22;37915;53.254;6.598;2023-02-26T01:11:19;0.60;99.90
51884;DHT22;37915;53.254;6.598;2023-02-26T01:13:45;0.50;99.90
51884;DHT22;37915;53.254;6.598;2023-02-26T01:16:11;0.40;99.90
51884;DHT22;37915;53.254;6.598;2023-02-26T01:18:44;0.40;99.90
51884;DHT22;37915;53.254;6.598;2023-02-26T01:21:12;0.30;99.90
51884;DHT22;37915;53.254;6.598;2023-02-26T01:23:40;1.00;99.90
51884;DHT22;37915;53.254;6.598;2023-02-26T01:26:11;0.20;99.90
51884;DHT22;37915;53.254;6.598;2023-02-26T01:28:39;0.10;99.90
51884;DHT22;37915;53.254;6.598;2023-02-26T01:31:05;0.00;99.90
51884;DHT22;37915;53.254;6.598;2023-02-26T01:33:46;-0.10;99.90
51884;DHT22;37915;53.254;6.598;2023-02-26T01:36:19;-0.20;99.90
51884;DHT22;37915;53.254;6.598;2023-02-26T01:49:14;-0.20;99.90
51884;DHT22;37915;53.254;6.598;2023-02-26T01:51:48;-0.30;99.90
51884;DHT22;37915;53.254;6.598;2023-02-26T01:54:15;-0.30;99.90
51884;DHT22;37915;53.254;6.598;2023-02-26T01:56:41;0.40;99.90
51884;DHT22;37915;53.254;6.598;2023-02-26T01:59:08;-0.30;99.90
51884;DHT22;37915;53.254;6.598;2023-02-26T02:01:37;-0.30;99.90
51884;DHT22;37915;53.254;6.598;2023-02-26T02:04:04;-0.40;99.90
51884;DHT22;37915;53.254;6.598;2023-02-26T02:06:32;1.10;99.90
51884;DHT22;37915;53.254;6.598;2023-02-26T02:08:58;-0.40;99.90
51884;DHT22;37915;53.254;6.598;2023-02-26T02:11:23;-0.10;99.90
51884;DHT22;37915;53.254;6.598;2023-02-26T02:13:55;-0.50;99.90
51884;DHT22;37915;53.254;6.598;2023-02-26T02:21:43;-0.60;99.90
51884;DHT22;37915;53.254;6.598;2023-02-26T02:29:19;-0.60;99.90
51884;DHT22;37915;53.254;6.598;2023-02-26T02:31:54;-0.60;99.90
51884;DHT22;37915;53.254;6.598;2023-02-26T02:34:24;-0.70;99.90
51884;DHT22;37915;53.254;6.598;2023-02-26T02:39:33;-0.70;99.90
51884;DHT22;37915;53.254;6.598;2023-02-26T02:42:03;-0.70;99.90
51884;DHT22;37915;53.254;6.598;2023-02-26T02:44:31;-0.70;99.90
51884;DHT22;37915;53.254;6.598;2023-02-26T02:46:58;0.30;99.90
51884;DHT22;37915;53.254;6.598;2023-02-26T02:49:26;-0.70;99.90
51884;DHT22;37915;53.254;6.598;2023-02-26T02:51:54;-0.50;99.90
51884;DHT22;37915;53.254;6.598;2023-02-26T02:54:33;-0.70;99.90
51884;DHT22;37915;53.254;6.598;2023-02-26T02:57:02;-0.70;99.90
51884;DHT22;37915;53.254;6.598;2023-02-26T02:59:31;-0.70;99.90
51884;DHT22;37915;53.254;6.598;2023-02-26T03:02:05;-0.70;99.90
51884;DHT22;37915;53.254;6.598;2023-02-26T03:04:32;-0.70;99.90
51884;DHT22;37915;53.254;6.598;2023-02-26T03:06:58;-0.80;99.90
51884;DHT22;37915;53.254;6.598;2023-02-26T03:09:24;0.00;99.90
51884;DHT22;37915;53.254;6.598;2023-02-26T03:11:49;-0.80;99.90
51884;DHT22;37915;53.254;6.598;2023-02-26T03:14:15;-0.80;99.90
51884;DHT22;37915;53.254;6.598;2023-02-26T03:16:48;-0.80;99.90
51884;DHT22;37915;53.254;6.598;2023-02-26T03:19:22;-0.80;99.90
51884;DHT22;37915;53.254;6.598;2023-02-26T03:29:54;-0.90;99.90
51884;DHT22;37915;53.254;6.598;2023-02-26T03:32:23;-1.00;99.90
51884;DHT22;37915;53.254;6.598;2023-02-26T03:34:51;0.20;99.90
51884;DHT22;37915;53.254;6.598;2023-02-26T03:37:22;-0.50;99.90
51884;DHT22;37915;53.254;6.598;2023-02-26T03:39:54;-1.00;99.90
51884;DHT22;37915;53.254;6.598;2023-02-26T03:42:21;-1.00;99.90
51884;DHT22;37915;53.254;6.598;2023-02-26T03:44:51;0.00;99.90
51884;DHT22;37915;53.254;6.598;2023-02-26T03:47:18;0.30;99.90
51884;DHT22;37915;53.254;6.598;2023-02-26T03:49:45;-1.10;99.90
51884;DHT22;37915;53.254;6.598;2023-02-26T03:52:12;-1.00;99.90
51884;DHT22;37915;53.254;6.598;2023-02-26T03:55:00;-0.10;99.90
51884;DHT22;37915;53.254;6.598;2023-02-26T03:57:24;-0.30;99.90
51884;DHT22;37915;53.254;6.598;2023-02-26T03:59:49;-1.00;99.90
51884;DHT22;37915;53.254;6.598;2023-02-26T04:02:21;-0.50;99.90
51884;DHT22;37915;53.254;6.598;2023-02-26T04:04:52;-1.00;99.90
51884;DHT22;37915;53.254;6.598;2023-02-26T04:07:20;-1.00;99.90
51884;DHT22;37915;53.254;6.598;2023-02-26T04:09:47;0.20;99.90
51884;DHT22;37915;53.254;6.598;2023-02-26T04:12:13;-1.00;99.90
51884;DHT22;37915;53.254;6.598;2023-02-26T04:14:38;-1.00;99.90
51884;DHT22;37915;53.254;6.598;2023-02-26T04:17:04;0.30;99.90
51884;DHT22;37915;53.254;6.598;2023-02-26T04:19:30;-1.00;99.90
51884;DHT22;37915;53.254;6.598;2023-02-26T04:21:55;-0.10;99.90
51884;DHT22;37915;53.254;6.598;2023-02-26T04:24:21;-1.10;99.90
51884;DHT22;37915;53.254;6.598;2023-02-26T04:26:47;-0.50;99.90
51884;DHT22;37915;53.254;6.598;2023-02-26T04:29:12;-0.80;99.90
51884;DHT22;37915;53.254;6.598;2023-02-26T04:31:38;-0.40;99.90
51884;DHT22;37915;53.254;6.598;2023-02-26T04:34:03;-0.30;99.90
51884;DHT22;37915;53.254;6.598;2023-02-26T04:36:29;-0.60;99.90
51884;DHT22;37915;53.254;6.598;2023-02-26T04:38:55;0.00;99.90
51884;DHT22;37915;53.254;6.598;2023-02-26T04:41:20;-0.80;99.90
51884;DHT22;37915;53.254;6.598;2023-02-26T04:43:46;-1.10;99.90
51884;DHT22;37915;53.254;6.598;2023-02-26T04:46:12;-0.50;99.90
51884;DHT22;37915;53.254;6.598;2023-02-26T04:48:38;-1.20;99.90
51884;DHT22;37915;53.254;6.598;2023-02-26T04:51:03;-1.20;99.90
51884;DHT22;37915;53.254;6.598;2023-02-26T04:53:29;-1.30;99.90
51884;DHT22;37915;53.254;6.598;2023-02-26T04:55:54;-1.30;99.90
51884;DHT22;37915;53.254;6.598;2023-02-26T04:58:20;-0.10;99.90
51884;DHT22;37915;53.254;6.598;2023-02-26T05:00:49;-0.30;99.90
51884;DHT22;37915;53.254;6.598;2023-02-26T05:03:15;-1.30;99.90
51884;DHT22;37915;53.254;6.598;2023-02-26T05:05:41;-1.30;99.90
51884;DHT22;37915;53.254;6.598;2023-02-26T05:08:06;-0.20;99.90
51884;DHT22;37915;53.254;6.598;2023-02-26T05:10:32;-1.40;99.90
51884;DHT22;37915;53.254;6.598;2023-02-26T05:12:58;-1.20;99.90
51884;DHT22;37915;53.254;6.598;2023-02-26T05:15:23;0.10;99.90
51884;DHT22;37915;53.254;6.598;2023-02-26T05:17:49;-1.40;99.90
51884;DHT22;37915;53.254;6.598;2023-02-26T05:20:14;-1.50;99.90
51884;DHT22;37915;53.254;6.598;2023-02-26T05:22:40;-1.50;99.90
51884;DHT22;37915;53.254;6.598;2023-02-26T05:25:05;-1.50;99.90
51884;DHT22;37915;53.254;6.598;2023-02-26T05:27:31;-1.50;99.90
51884;DHT22;37915;53.254;6.598;2023-02-26T05:29:57;-1.50;99.90
51884;DHT22;37915;53.254;6.598;2023-02-26T05:32:23;-1.40;99.90
51884;DHT22;37915;53.254;6.598;2023-02-26T05:34:48;-1.40;99.90
51884;DHT22;37915;53.254;6.598;2023-02-26T05:37:14;-1.40;99.90
51884;DHT22;37915;53.254;6.598;2023-02-26T05:39:39;-1.40;99.90
51884;DHT22;37915;53.254;6.598;2023-02-26T05:42:08;-0.30;99.90
51884;DHT22;37915;53.254;6.598;2023-02-26T05:44:33;-0.80;99.90
51884;DHT22;37915;53.254;6.598;2023-02-26T05:47:02;-1.40;99.90
51884;DHT22;37915;53.254;6.598;2023-02-26T05:49:27;-1.40;99.90
51884;DHT22;37915;53.254;6.598;2023-02-26T05:51:53;-1.40;99.90
51884;DHT22;37915;53.254;6.598;2023-02-26T05:54:18;-1.40;99.90
51884;DHT22;37915;53.254;6.598;2023-02-26T05:56:44;-1.30;99.90
51884;DHT22;37915;53.254;6.598;2023-02-26T05:59:10;-1.40;99.90
51884;DHT22;37915;53.254;6.598;2023-02-26T06:01:35;-1.20;99.90
51884;DHT22;37915;53.254;6.598;2023-02-26T06:04:02;-0.90;99.90
51884;DHT22;37915;53.254;6.598;2023-02-26T06:06:28;-1.50;99.90
51884;DHT22;37915;53.254;6.598;2023-02-26T06:08:53;-1.50;99.90
51884;DHT22;37915;53.254;6.598;2023-02-26T06:11:19;-1.00;99.90
51884;DHT22;37915;53.254;6.598;2023-02-26T06:13:45;-1.50;99.90
51884;DHT22;37915;53.254;6.598;2023-02-26T06:16:10;-0.20;99.90
51884;DHT22;37915;53.254;6.598;2023-02-26T06:18:36;-1.10;99.90
51884;DHT22;37915;53.254;6.598;2023-02-26T06:21:01;-0.60;99.90
51884;DHT22;37915;53.254;6.598;2023-02-26T06:23:27;-1.50;99.90
51884;DHT22;37915;53.254;6.598;2023-02-26T06:25:53;-1.50;99.90
51884;DHT22;37915;53.254;6.598;2023-02-26T06:28:18;-0.80;99.90
51884;DHT22;37915;53.254;6.598;2023-02-26T06:30:44;-1.50;99.90
51884;DHT22;37915;53.254;6.598;2023-02-26T06:33:10;-1.50;99.90
51884;DHT22;37915;53.254;6.598;2023-02-26T06:35:35;-1.30;99.90
51884;DHT22;37915;53.254;6.598;2023-02-26T06:38:01;-1.50;99.90
51884;DHT22;37915;53.254;6.598;2023-02-26T06:40:27;-0.10;99.90
51884;DHT22;37915;53.254;6.598;2023-02-26T06:42:53;-0.30;99.90
51884;DHT22;37915;53.254;6.598;2023-02-26T06:45:18;-0.50;99.90
51884;DHT22;37915;53.254;6.598;2023-02-26T06:47:44;-1.50;99.90
51884;DHT22;37915;53.254;6.598;2023-02-26T06:50:10;0.10;99.90
51884;DHT22;37915;53.254;6.598;2023-02-26T06:52:35;-1.40;99.90
51884;DHT22;37915;53.254;6.598;2023-02-26T06:55:02;0.00;99.90
51884;DHT22;37915;53.254;6.598;2023-02-26T06:57:27;-1.50;99.90
51884;DHT22;37915;53.254;6.598;2023-02-26T06:59:53;-0.50;99.90
51884;DHT22;37915;53.254;6.598;2023-02-26T07:02:20;-0.80;99.90
51884;DHT22;37915;53.254;6.598;2023-02-26T07:04:46;-1.40;99.90
51884;DHT22;37915;53.254;6.598;2023-02-26T07:07:12;-1.40;99.90
51884;DHT22;37915;53.254;6.598;2023-02-26T07:09:38;0.20;99.90
51884;DHT22;37915;53.254;6.598;2023-02-26T07:12:03;-1.40;99.90
51884;DHT22;37915;53.254;6.598;2023-02-26T07:14:31;-1.40;99.90
51884;DHT22;37915;53.254;6.598;2023-02-26T07:16:57;-1.30;99.90
51884;DHT22;37915;53.254;6.598;2023-02-26T07:19:22;-0.40;99.90
51884;DHT22;37915;53.254;6.598;2023-02-26T07:21:48;-1.20;99.90
51884;DHT22;37915;53.254;6.598;2023-02-26T07:24:14;-1.20;99.90
51884;DHT22;37915;53.254;6.598;2023-02-26T07:26:39;-1.20;99.90
51884;DHT22;37915;53.254;6.598;2023-02-26T07:29:05;-1.10;99.90
51884;DHT22;37915;53.254;6.598;2023-02-26T07:31:30;-1.10;99.90
51884;DHT22;37915;53.254;6.598;2023-02-26T07:33:56;-0.10;99.90
51884;DHT22;37915;53.254;6.598;2023-02-26T07:36:22;-0.40;99.90
51884;DHT22;37915;53.254;6.598;2023-02-26T07:38:48;-1.00;99.90
51884;DHT22;37915;53.254;6.598;2023-02-26T07:41:13;-0.90;99.90
51884;DHT22;37915;53.254;6.598;2023-02-26T07:43:39;0.20;99.90
51884;DHT22;37915;53.254;6.598;2023-02-26T07:46:04;0.60;99.90
51884;DHT22;37915;53.254;6.598;2023-02-26T07:48:30;-0.90;99.90
51884;DHT22;37915;53.254;6.598;2023-02-26T07:50:56;-0.80;99.90
51884;DHT22;37915;53.254;6.598;2023-02-26T07:53:21;0.70;99.90
51884;DHT22;37915;53.254;6.598;2023-02-26T07:55:47;-0.80;99.90
51884;DHT22;37915;53.254;6.598;2023-02-26T07:58:13;-0.10;99.90
51884;DHT22;37915;53.254;6.598;2023-02-26T08:00:39;-0.70;99.90
51884;DHT22;37915;53.254;6.598;2023-02-26T08:03:04;0.00;99.90
51884;DHT22;37915;53.254;6.598;2023-02-26T08:05:30;-0.50;99.90
51884;DHT22;37915;53.254;6.598;2023-02-26T08:07:56;0.90;99.90
51884;DHT22;37915;53.254;6.598;2023-02-26T08:10:21;-0.20;99.90
51884;DHT22;37915;53.254;6.598;2023-02-26T08:12:47;-0.10;99.90
51884;DHT22;37915;53.254;6.598;2023-02-26T08:15:12;0.20;99.90
51884;DHT22;37915;53.254;6.598;2023-02-26T08:17:39;0.20;99.90
51884;DHT22;37915;53.254;6.598;2023-02-26T08:20:04;1.60;99.90
51884;DHT22;37915;53.254;6.598;2023-02-26T08:22:30;0.50;99.90
51884;DHT22;37915;53.254;6.598;2023-02-26T08:24:56;0.60;99.90
51884;DHT22;37915;53.254;6.598;2023-02-26T08:27:22;0.70;99.90
51884;DHT22;37915;53.254;6.598;2023-02-26T08:29:47;0.80;99.90
51884;DHT22;37915;53.254;6.598;2023-02-26T08:32:14;1.50;99.90
51884;DHT22;37915;53.254;6.598;2023-02-26T08:34:40;1.50;99.90
51884;DHT22;37915;53.254;6.598;2023-02-26T08:37:06;1.20;99.90
51884;DHT22;37915;53.254;6.598;2023-02-26T08:39:34;1.30;99.90
51884;DHT22;37915;53.254;6.598;2023-02-26T08:42:02;2.40;99.90
51884;DHT22;37915;53.254;6.598;2023-02-26T08:44:28;1.60;99.90
51884;DHT22;37915;53.254;6.598;2023-02-26T08:46:53;2.10;99.90
51884;DHT22;37915;53.254;6.598;2023-02-26T08:49:20;3.10;99.90
51884;DHT22;37915;53.254;6.598;2023-02-26T08:51:46;2.90;99.90
51884;DHT22;37915;53.254;6.598;2023-02-26T08:54:11;2.10;99.90
51884;DHT22;37915;53.254;6.598;2023-02-26T08:56:37;3.40;99.90
51884;DHT22;37915;53.254;6.598;2023-02-26T08:59:03;2.30;99.90
51884;DHT22;37915;53.254;6.598;2023-02-26T09:01:29;2.40;99.90
51884;DHT22;37915;53.254;6.598;2023-02-26T09:03:54;2.50;99.90
51884;DHT22;37915;53.254;6.598;2023-02-26T09:06:20;3.20;99.90
51884;DHT22;37915;53.254;6.598;2023-02-26T09:08:45;2.70;99.90
51884;DHT22;37915;53.254;6.598;2023-02-26T09:11:11;2.80;99.90
51884;DHT22;37915;53.254;6.598;2023-02-26T09:13:37;2.90;99.90
51884;DHT22;37915;53.254;6.598;2023-02-26T09:16:02;3.00;99.90
51884;DHT22;37915;53.254;6.598;2023-02-26T09:18:28;3.10;99.90
51884;DHT22;37915;53.254;6.598;2023-02-26T09:20:53;3.40;99.90
51884;DHT22;37915;53.254;6.598;2023-02-26T09:23:19;3.30;99.90
51884;DHT22;37915;53.254;6.598;2023-02-26T09:25:44;3.50;99.90
51884;DHT22;37915;53.254;6.598;2023-02-26T09:28:10;3.60;99.90
51884;DHT22;37915;53.254;6.598;2023-02-26T09:30:36;3.70;99.90
51884;DHT22;37915;53.254;6.598;2023-02-26T09:33:01;3.80;99.90
51884;DHT22;37915;53.254;6.598;2023-02-26T09:35:27;3.90;99.90
51884;DHT22;37915;53.254;6.598;2023-02-26T09:37:52;4.00;99.90
51884;DHT22;37915;53.254;6.598;2023-02-26T09:40:20;4.10;99.90
51884;DHT22;37915;53.254;6.598;2023-02-26T09:45:24;4.20;99.90
51884;DHT22;37915;53.254;6.598;2023-02-26T09:47:50;4.30;99.90
51884;DHT22;37915;53.254;6.598;2023-02-26T09:50:18;4.80;99.90
51884;DHT22;37915;53.254;6.598;2023-02-26T09:55:26;5.20;99.90
51884;DHT22;37915;53.254;6.598;2023-02-26T09:57:59;5.10;99.90
51884;DHT22;37915;53.254;6.598;2023-02-26T10:02:59;5.50;99.90
51884;DHT22;37915;53.254;6.598;2023-02-26T10:06:11;5.60;99.90
51884;DHT22;37915;53.254;6.598;2023-02-26T10:08:18;5.70;99.90
51884;DHT22;37915;53.254;6.598;2023-02-26T10:10:55;5.90;99.90
51884;DHT22;37915;53.254;6.598;2023-02-26T10:13:27;5.80;99.90
51884;DHT22;37915;53.254;6.598;2023-02-26T10:15:56;5.90;99.90
51884;DHT22;37915;53.254;6.598;2023-02-26T10:18:27;5.90;99.90
51884;DHT22;37915;53.254;6.598;2023-02-26T10:26:12;5.60;99.90
51884;DHT22;37915;53.254;6.598;2023-02-26T10:31:12;5.20;99.90
51884;DHT22;37915;53.254;6.598;2023-02-26T10:36:27;4.80;99.90
51884;DHT22;37915;53.254;6.598;2023-02-26T10:38:59;4.60;99.90
51884;DHT22;37915;53.254;6.598;2023-02-26T10:41:26;4.70;99.90
51884;DHT22;37915;53.254;6.598;2023-02-26T10:44:08;4.60;99.90
51884;DHT22;37915;53.254;6.598;2023-02-26T10:46:43;4.60;99.90
51884;DHT22;37915;53.254;6.598;2023-02-26T10:51:38;5.50;99.90
51884;DHT22;37915;53.254;6.598;2023-02-26T10:54:15;5.90;99.90
51884;DHT22;37915;53.254;6.598;2023-02-26T10:56:44;6.00;99.90
51884;DHT22;37915;53.254;6.598;2023-02-26T10:59:10;5.90;99.90
51884;DHT22;37915;53.254;6.598;2023-02-26T11:01:35;5.70;99.90
51884;DHT22;37915;53.254;6.598;2023-02-26T11:04:05;5.70;99.90
51884;DHT22;37915;53.254;6.598;2023-02-26T11:06:40;5.30;99.90
51884;DHT22;37915;53.254;6.598;2023-02-26T11:09:21;5.00;99.90
51884;DHT22;37915;53.254;6.598;2023-02-26T11:11:55;4.80;99.90
51884;DHT22;37915;53.254;6.598;2023-02-26T11:14:25;4.70;99.90
51884;DHT22;37915;53.254;6.598;2023-02-26T11:16:52;4.60;99.90
51884;DHT22;37915;53.254;6.598;2023-02-26T11:19:19;4.50;99.90
51884;DHT22;37915;53.254;6.598;2023-02-26T11:21:48;4.50;99.90
51884;DHT22;37915;53.254;6.598;2023-02-26T11:24:26;4.50;99.90
51884;DHT22;37915;53.254;6.598;2023-02-26T11:26:53;4.50;99.90
51884;DHT22;37915;53.254;6.598;2023-02-26T11:29:20;4.50;99.90
51884;DHT22;37915;53.254;6.598;2023-02-26T11:31:52;4.60;99.90
51884;DHT22;37915;53.254;6.598;2023-02-26T11:34:23;4.60;99.90
51884;DHT22;37915;53.254;6.598;2023-02-26T11:36:49;4.70;99.90
51884;DHT22;37915;53.254;6.598;2023-02-26T11:39:23;4.70;99.90
51884;DHT22;37915;53.254;6.598;2023-02-26T11:41:50;4.80;99.90
51884;DHT22;37915;53.254;6.598;2023-02-26T11:44:18;5.20;99.90
51884;DHT22;37915;53.254;6.598;2023-02-26T11:46:56;5.00;99.90
51884;DHT22;37915;53.254;6.598;2023-02-26T11:49:22;5.00;99.90
51884;DHT22;37915;53.254;6.598;2023-02-26T11:52:00;5.40;99.90
51884;DHT22;37915;53.254;6.598;2023-02-26T11:54:27;5.00;99.90
51884;DHT22;37915;53.254;6.598;2023-02-26T11:57:00;5.00;99.90
51884;DHT22;37915;53.254;6.598;2023-02-26T11:59:25;6.50;99.90
51884;DHT22;37915;53.254;6.598;2023-02-26T12:01:52;5.10;99.90
51884;DHT22;37915;53.254;6.598;2023-02-26T12:04:19;5.10;99.90
51884;DHT22;37915;53.254;6.598;2023-02-26T12:06:45;5.30;99.90
51884;DHT22;37915;53.254;6.598;2023-02-26T12:09:13;5.30;99.90
51884;DHT22;37915;53.254;6.598;2023-02-26T12:16:44;5.20;99.90
51884;DHT22;37915;53.254;6.598;2023-02-26T12:32:49;5.20;99.90
51884;DHT22;37915;53.254;6.598;2023-02-26T12:46:21;5.40;99.90
51884;DHT22;37915;53.254;6.598;2023-02-26T12:48:55;5.50;99.90
51884;DHT22;37915;53.254;6.598;2023-02-26T12:54:12;5.40;99.90
51884;DHT22;37915;53.254;6.598;2023-02-26T13:14:37;5.60;99.90
51884;DHT22;37915;53.254;6.598;2023-02-26T13:19:38;5.70;99.90
51884;DHT22;37915;53.254;6.598;2023-02-26T13:24:43;5.60;99.90
51884;DHT22;37915;53.254;6.598;2023-02-26T13:27:10;5.50;99.90
51884;DHT22;37915;53.254;6.598;2023-02-26T13:29:44;5.50;99.90
51884;DHT22;37915;53.254;6.598;2023-02-26T13:32:24;5.50;99.90
51884;DHT22;37915;53.254;6.598;2023-02-26T13:34:58;5.70;99.90
51884;DHT22;37915;53.254;6.598;2023-02-26T13:37:27;5.60;99.90
51884;DHT22;37915;53.254;6.598;2023-02-26T13:39:55;5.50;99.90
51884;DHT22;37915;53.254;6.598;2023-02-26T13:52:51;5.70;99.90
51884;DHT22;37915;53.254;6.598;2023-02-26T13:55:34;5.60;99.90
51884;DHT22;37915;53.254;6.598;2023-02-26T13:58:04;6.70;99.90
51884;DHT22;37915;53.254;6.598;2023-02-26T14:00:44;5.60;99.90
51884;DHT22;37915;53.254;6.598;2023-02-26T14:03:33;5.70;99.90
51884;DHT22;37915;53.254;6.598;2023-02-26T14:11:04;5.80;99.90
51884;DHT22;37915;53.254;6.598;2023-02-26T14:13:39;6.00;99.90
51884;DHT22;37915;53.254;6.598;2023-02-26T14:16:22;5.80;99.90
51884;DHT22;37915;53.254;6.598;2023-02-26T14:18:49;5.70;99.90
51884;DHT22;37915;53.254;6.598;2023-02-26T14:23:57;5.60;99.90
51884;DHT22;37915;53.254;6.598;2023-02-26T14:26:24;5.60;99.90
51884;DHT22;37915;53.254;6.598;2023-02-26T14:34:14;5.50;99.90
51884;DHT22;37915;53.254;6.598;2023-02-26T14:36:45;5.40;99.90
51884;DHT22;37915;53.254;6.598;2023-02-26T14:39:17;5.40;99.90
51884;DHT22;37915;53.254;6.598;2023-02-26T14:41:46;5.30;99.90
51884;DHT22;37915;53.254;6.598;2023-02-26T14:44:13;5.20;99.90
51884;DHT22;37915;53.254;6.598;2023-02-26T14:46:40;5.10;99.90
51884;DHT22;37915;53.254;6.598;2023-02-26T14:49:08;5.20;99.90
51884;DHT22;37915;53.254;6.598;2023-02-26T14:54:25;5.50;99.90
51884;DHT22;37915;53.254;6.598;2023-02-26T14:59:24;5.80;99.90
51884;DHT22;37915;53.254;6.598;2023-02-26T15:05:31;5.70;99.90
51884;DHT22;37915;53.254;6.598;2023-02-26T15:07:37;5.70;99.90
51884;DHT22;37915;53.254;6.598;2023-02-26T15:10:10;5.60;99.90
51884;DHT22;37915;53.254;6.598;2023-02-26T15:18:16;5.30;99.90
51884;DHT22;37915;53.254;6.598;2023-02-26T15:26:34;5.40;99.90
51884;DHT22;37915;53.254;6.598;2023-02-26T15:29:02;5.40;99.90
51884;DHT22;37915;53.254;6.598;2023-02-26T15:31:42;5.50;99.90
51884;DHT22;37915;53.254;6.598;2023-02-26T15:34:11;5.50;99.90
51884;DHT22;37915;53.254;6.598;2023-02-26T15:36:39;5.40;99.90
51884;DHT22;37915;53.254;6.598;2023-02-26T15:39:07;5.40;99.90
51884;DHT22;37915;53.254;6.598;2023-02-26T15:41:33;5.40;99.90
51884;DHT22;37915;53.254;6.598;2023-02-26T15:44:00;5.40;99.90
51884;DHT22;37915;53.254;6.598;2023-02-26T15:46:27;5.60;99.90
51884;DHT22;37915;53.254;6.598;2023-02-26T15:48:55;5.40;99.90
51884;DHT22;37915;53.254;6.598;2023-02-26T15:51:23;5.50;99.90
51884;DHT22;37915;53.254;6.598;2023-02-26T15:53:49;5.50;99.90
51884;DHT22;37915;53.254;6.598;2023-02-26T15:56:16;5.40;99.90
51884;DHT22;37915;53.254;6.598;2023-02-26T15:58:46;5.30;99.90
51884;DHT22;37915;53.254;6.598;2023-02-26T16:01:15;5.10;99.90
51884;DHT22;37915;53.254;6.598;2023-02-26T16:03:41;5.00;99.90
51884;DHT22;37915;53.254;6.598;2023-02-26T16:06:10;5.10;99.90
51884;DHT22;37915;53.254;6.598;2023-02-26T16:08:36;4.70;99.90
51884;DHT22;37915;53.254;6.598;2023-02-26T16:11:03;4.60;99.90
51884;DHT22;37915;53.254;6.598;2023-02-26T16:13:31;4.50;99.90
51884;DHT22;37915;53.254;6.598;2023-02-26T16:15:58;4.40;99.90
51884;DHT22;37915;53.254;6.598;2023-02-26T16:18:24;4.30;99.90
51884;DHT22;37915;53.254;6.598;2023-02-26T16:20:52;4.30;99.90
51884;DHT22;37915;53.254;6.598;2023-02-26T16:23:21;4.30;99.90
51884;DHT22;37915;53.254;6.598;2023-02-26T16:28:20;4.10;99.90
51884;DHT22;37915;53.254;6.598;2023-02-26T16:30:47;4.00;99.90
51884;DHT22;37915;53.254;6.598;2023-02-26T16:33:14;4.00;99.90
51884;DHT22;37915;53.254;6.598;2023-02-26T16:35:52;3.90;99.90
51884;DHT22;37915;53.254;6.598;2023-02-26T16:38:26;3.90;99.90
51884;DHT22;37915;53.254;6.598;2023-02-26T16:40:59;3.80;99.90
51884;DHT22;37915;53.254;6.598;2023-02-26T16:48:57;3.80;99.90
51884;DHT22;37915;53.254;6.598;2023-02-26T16:51:24;3.80;99.90
51884;DHT22;37915;53.254;6.598;2023-02-26T16:53:55;4.10;99.90
51884;DHT22;37915;53.254;6.598;2023-02-26T16:56:43;3.60;99.90
51884;DHT22;37915;53.254;6.598;2023-02-26T16:59:13;3.60;99.90
51884;DHT22;37915;53.254;6.598;2023-02-26T17:01:58;3.50;99.90
51884;DHT22;37915;53.254;6.598;2023-02-26T17:04:28;3.50;99.90
51884;DHT22;37915;53.254;6.598;2023-02-26T17:06:56;3.50;99.90
51884;DHT22;37915;53.254;6.598;2023-02-26T17:09:24;4.00;99.90
51884;DHT22;37915;53.254;6.598;2023-02-26T17:11:49;3.50;99.90
51884;DHT22;37915;53.254;6.598;2023-02-26T17:14:23;3.50;99.90
51884;DHT22;37915;53.254;6.598;2023-02-26T17:16:50;3.50;99.90
51884;DHT22;37915;53.254;6.598;2023-02-26T17:19:16;3.50;99.90
51884;DHT22;37915;53.254;6.598;2023-02-26T17:21:43;3.70;99.90
51884;DHT22;37915;53.254;6.598;2023-02-26T17:24:14;3.40;99.90
51884;DHT22;37915;53.254;6.598;2023-02-26T17:26:40;3.40;99.90
51884;DHT22;37915;53.254;6.598;2023-02-26T17:29:05;3.40;99.90
51884;DHT22;37915;53.254;6.598;2023-02-26T17:31:31;3.70;99.90
51884;DHT22;37915;53.254;6.598;2023-02-26T17:38:50;3.40;99.90
51884;DHT22;37915;53.254;6.598;2023-02-26T17:41:16;4.00;99.90
51884;DHT22;37915;53.254;6.598;2023-02-26T17:43:42;3.20;99.90
